Thompson Airport
CYTH : now visible

Airfield :











YOU CAN JOIN US ON...

 
LOGIN :

Register | Disclaimer

   EN    FR    IT 

 









Legend :    VFR   Marginal VFR   IFR   Intensive IFR   Very Intensive IFR
Visi :
Ceiling :
>= 8 km
>= 3000ft
5 to 8 km
1000 to 3000 ft
1500m to 5 km
500 to 1000 ft
800 to 1500m
200 to 500 ft
< 800m
< 200 ft
Symbols :   Thunderstorms  Fog  Heavy snow  Heavy precipitations  Wind > 20 kt






- Airport Elevation : 729 ft
- IATA code : YTH


CYTH - Thompson

CURRENT METAR :
  • 231900Z 22016G25KT 15SM FEW078 SCT210 25/06 A2951 RMK CU2CI2 SLP997 DENSITY ALT 2500FT

EXPIRED METARs :
  • 231800Z 22018G25KT 15SM FEW068 24/07 A2955 RMK CU1 SLP012 DENSITY ALT 2400FT
  • 231700Z 23018G27KT 15SM SKC 23/07 A2957 RMK SLP016 DENSITY ALT 2300FT

TAF TAF CYTH
Valid from the 23 at 19:00 until the 24 at 07:00 UTC


231838Z 2319/2407 26012G22KT P6SM FEW020 SCT220
FM232100 27012G22KT P6SM BKN040
TEMPO 2321/2401 P6SM -SHRA
FM240100 27012G22KT P6SM -SHRA OVC030
TEMPO 2401/2405 5SM -SHRA VCTS BR OVC020CB
FM240500 27012G22KT P6SM BKN020 RMK NXT FCST BY 240100Z
CZWG FIR / North America



MET'MAP, your aeronautical weather chart ! - Copyright ORBIFLY December 2007 - Disclaimer

ORBIFLY MET'MAP TEAM :

Programming & Development : Alexandra Zaïnal
Concept & original design : Baudouin d'Aumeries
Assistance for programming : Marc-Olivier Méhu
Technical & hardware support : Manuel Goepfert

Contact : metmap@orbifly.com




SOURCES & CREDITS :

   NOAA       Earth
Advisory